createdAt,value
2018-02-18T06:56:23.135Z,100.0
2018-02-18T06:57:25.197Z,100.0
2018-02-18T06:58:44.959Z,100.0
2018-02-18T06:59:47.446Z,100.0
2018-02-18T07:00:49.869Z,100.0
2018-02-18T07:01:51.600Z,100.0
2018-02-18T07:02:53.310Z,100.0
2018-02-18T07:03:55.075Z,100.0
2018-02-18T07:04:56.806Z,100.0
2018-02-18T07:05:58.769Z,100.0
2018-02-18T07:07:00.603Z,100.0
2018-02-18T07:08:02.734Z,100.0
2018-02-18T07:09:04.490Z,100.0
2018-02-18T07:10:06.842Z,100.0
2018-02-18T07:11:08.765Z,100.0
2018-02-18T07:12:10.960Z,100.0
2018-02-18T07:13:13.040Z,99.3
2018-02-18T07:14:15.315Z,100.0
2018-02-18T07:15:17.503Z,99.7
2018-02-18T07:16:19.743Z,99.9
2018-02-18T07:17:21.937Z,100.0
2018-02-18T07:18:23.923Z,100.0
2018-02-18T07:19:26.110Z,100.0
2018-02-18T07:20:28.172Z,100.0
2018-02-18T07:21:30.208Z,100.0
2018-02-18T07:22:31.935Z,100.0
2018-02-18T07:23:33.687Z,100.0
2018-02-18T07:24:35.864Z,100.0
2018-02-18T07:25:37.910Z,100.0
2018-02-18T07:26:40.285Z,100.0
2018-02-18T07:27:42.094Z,99.6
2018-02-18T07:28:43.974Z,99.0
2018-02-18T07:29:46.044Z,99.4
2018-02-18T07:30:47.908Z,98.7
2018-02-18T07:31:49.652Z,99.0
2018-02-18T07:32:51.580Z,98.9
2018-02-18T07:33:54.149Z,98.6
2018-02-18T07:34:55.888Z,97.9
2018-02-18T07:35:57.795Z,97.3
2018-02-18T07:36:59.588Z,96.8
2018-02-18T07:38:01.839Z,96.1
2018-02-18T07:39:03.881Z,94.9
2018-02-18T07:40:06.303Z,94.8
2018-02-18T07:41:08.701Z,93.8
2018-02-18T07:42:10.452Z,93.7
2018-02-18T07:43:12.161Z,92.4
2018-02-18T07:44:13.958Z,92.4
2018-02-18T07:45:15.812Z,91.8
2018-02-18T07:46:17.544Z,92.4
2018-02-18T07:47:19.301Z,91.9
2018-02-18T07:48:21.036Z,92.3
2018-02-18T07:49:22.806Z,92.0
2018-02-18T07:50:24.546Z,92.2
2018-02-18T07:51:26.286Z,92.0
2018-02-18T07:52:28.094Z,91.4
2018-02-18T07:53:29.761Z,91.4
2018-02-18T07:54:31.617Z,90.4
2018-02-18T07:55:35.491Z,89.2
2018-02-18T07:56:38.312Z,88.7
2018-02-18T07:57:40.898Z,88.3
2018-02-18T07:58:43.773Z,88.0
2018-02-18T07:59:46.100Z,88.2
2018-02-18T08:00:48.671Z,87.7
2018-02-18T08:01:50.616Z,87.9
2018-02-18T08:02:52.404Z,88.3
2018-02-18T08:03:54.364Z,88.2
2018-02-18T08:04:56.298Z,88.8
2018-02-18T08:05:58.276Z,87.9
2018-02-18T08:07:00.432Z,88.5
2018-02-18T08:08:02.385Z,88.2
2018-02-18T08:09:04.228Z,88.4
2018-02-18T08:10:06.201Z,88.3
2018-02-18T08:11:08.310Z,88.0
2018-02-18T08:12:10.147Z,88.0
2018-02-18T08:13:12.509Z,87.5
2018-02-18T08:14:14.276Z,87.0
2018-02-18T08:15:16.177Z,89.9
2018-02-18T08:16:17.836Z,89.7
2018-02-18T08:17:19.499Z,86.4
2018-02-18T08:18:21.212Z,85.7
2018-02-18T08:19:22.866Z,85.3
2018-02-18T08:20:24.592Z,86.4
2018-02-18T08:21:26.308Z,86.2
2018-02-18T08:22:30.208Z,86.4
2018-02-18T08:23:33.664Z,86.2
2018-02-18T08:24:36.141Z,86.5
2018-02-18T08:25:38.888Z,86.9
2018-02-18T08:26:40.930Z,86.9
2018-02-18T08:27:46.687Z,85.9
2018-02-18T08:28:48.781Z,86.5
2018-02-18T08:29:51.028Z,86.2
2018-02-18T08:30:57.139Z,85.1
2018-02-18T08:32:04.017Z,84.6
2018-02-18T08:33:08.505Z,84.5
2018-02-18T08:34:10.225Z,84.1
2018-02-18T08:35:12.388Z,83.8
2018-02-18T08:36:14.123Z,84.2
2018-02-18T08:37:17.133Z,83.3
2018-02-18T08:38:18.842Z,83.2
2018-02-18T08:39:20.675Z,81.8
2018-02-18T08:40:23.164Z,81.6
2018-02-18T08:41:24.941Z,81.4
2018-02-18T08:42:26.598Z,81.4
2018-02-18T08:43:28.998Z,81.2
2018-02-18T08:44:30.790Z,81.3
2018-02-18T08:45:43.823Z,81.2
2018-02-18T08:46:47.244Z,82.1
2018-02-18T08:47:54.945Z,81.8
2018-02-18T08:49:01.056Z,81.4
2018-02-18T08:50:05.647Z,80.5
2018-02-18T08:51:08.182Z,80.2
2018-02-18T08:52:10.223Z,80.3
2018-02-18T08:53:12.558Z,80.5
2018-02-18T08:54:14.687Z,80.3
2018-02-18T08:55:16.909Z,80.3
2018-02-18T08:56:23.016Z,79.9
2018-02-18T08:57:25.236Z,80.8
2018-02-18T08:58:27.563Z,80.4
2018-02-18T08:59:29.730Z,80.7
2018-02-18T09:00:31.891Z,80.3
2018-02-18T09:01:36.395Z,80.1
2018-02-18T09:02:38.349Z,80.7
2018-02-18T09:03:40.361Z,80.7
2018-02-18T09:04:44.318Z,80.8
2018-02-18T09:05:46.622Z,80.4
2018-02-18T09:06:48.564Z,80.2
2018-02-18T09:09:33.581Z,80.3
2018-02-18T09:10:36.520Z,78.5
2018-02-18T09:11:39.262Z,78.3
2018-02-18T09:12:43.715Z,79.3
2018-02-18T09:13:46.884Z,79.3
2018-02-18T09:14:48.731Z,78.9
2018-02-18T09:15:51.758Z,78.4
2018-02-18T09:17:34.851Z,77.2
2018-02-18T09:18:33.973Z,77.7
2018-02-18T09:19:35.891Z,77.1
2018-02-18T09:20:37.923Z,77.4
2018-02-18T09:21:39.842Z,78.5
2018-02-18T09:22:42.703Z,79.2
2018-02-18T09:23:44.531Z,79.7
2018-02-18T09:24:46.526Z,79.9
2018-02-18T09:25:48.968Z,78.2
2018-02-18T09:26:51.072Z,78.8
2018-02-18T09:27:53.244Z,78.4
2018-02-18T09:28:55.637Z,78.3
2018-02-18T09:29:58.638Z,78.0
2018-02-18T09:31:01.410Z,77.3
2018-02-18T09:32:03.703Z,77.3
2018-02-18T09:33:06.280Z,77.3
2018-02-18T09:35:19.237Z,77.9
2018-02-18T09:36:21.430Z,76.9
2018-02-18T09:37:23.893Z,77.1
2018-02-18T09:38:27.442Z,77.4
2018-02-18T09:39:30.905Z,77.1
2018-02-18T09:40:34.953Z,76.9
2018-02-18T09:41:40.665Z,77.1
2018-02-18T09:42:44.572Z,76.4
2018-02-18T09:43:46.721Z,76.0
2018-02-18T09:44:50.042Z,76.0
2018-02-18T09:45:54.285Z,76.3
2018-02-18T09:46:56.447Z,76.3
2018-02-18T09:47:58.617Z,76.6
2018-02-18T09:49:00.722Z,75.9
2018-02-18T09:50:02.742Z,74.9
2018-02-18T09:51:05.108Z,74.2
2018-02-18T09:52:06.882Z,73.2
2018-02-18T09:55:16.185Z,73.6
2018-02-18T09:56:18.120Z,74.3
2018-02-18T09:57:20.375Z,74.2
2018-02-18T09:58:22.901Z,74.2
2018-02-18T09:59:25.352Z,74.1
2018-02-18T10:00:28.114Z,73.8
2018-02-18T10:01:30.674Z,74.0
2018-02-18T10:02:32.869Z,74.0
2018-02-18T10:03:35.138Z,74.0
2018-02-18T10:04:37.261Z,74.0
2018-02-18T10:05:39.904Z,73.6
2018-02-18T10:06:42.100Z,73.2
2018-02-18T10:07:44.365Z,72.2
2018-02-18T10:08:46.334Z,71.5
2018-02-18T10:09:48.696Z,73.1
2018-02-18T10:10:51.288Z,72.6
2018-02-18T10:11:53.672Z,71.5
2018-02-18T10:12:55.631Z,72.1
2018-02-18T10:13:58.041Z,73.7
2018-02-18T10:15:00.270Z,68.9
2018-02-18T10:16:02.583Z,66.3
2018-02-18T10:17:04.687Z,65.9
2018-02-18T10:18:07.205Z,68.0
2018-02-18T10:19:09.437Z,68.7
2018-02-18T10:20:11.532Z,70.0
2018-02-18T10:21:13.774Z,70.0
2018-02-18T10:22:15.994Z,70.1
2018-02-18T10:23:18.164Z,70.2
2018-02-18T10:24:20.313Z,69.7
2018-02-18T10:25:22.580Z,70.0
2018-02-18T10:26:24.723Z,69.3
2018-02-18T10:27:27.010Z,69.4
2018-02-18T10:28:29.286Z,67.0
2018-02-18T10:29:31.250Z,65.3
2018-02-18T10:30:33.563Z,65.7
2018-02-18T10:31:35.489Z,65.7
2018-02-18T10:32:37.768Z,65.8
2018-02-18T10:33:41.568Z,66.7
2018-02-18T10:34:43.689Z,65.9
2018-02-18T10:35:45.473Z,66.7
2018-02-18T10:36:47.846Z,67.6
2018-02-18T10:37:50.068Z,66.4
2018-02-18T10:38:54.102Z,65.8
2018-02-18T10:39:56.188Z,66.2
2018-02-18T10:40:58.296Z,64.4
2018-02-18T10:42:00.244Z,64.8
2018-02-18T10:43:02.067Z,64.7
2018-02-18T10:44:04.089Z,64.7
2018-02-18T10:45:06.365Z,64.7
2018-02-18T10:46:08.311Z,64.1
2018-02-18T10:47:10.542Z,64.1
2018-02-18T10:48:12.502Z,64.1
2018-02-18T10:49:14.700Z,64.7
2018-02-18T10:50:16.748Z,64.7
2018-02-18T10:51:18.851Z,63.4
2018-02-18T10:52:20.985Z,62.8
2018-02-18T10:53:23.315Z,60.2
2018-02-18T10:54:25.289Z,59.8
2018-02-18T10:55:27.553Z,60.3
2018-02-18T10:56:29.712Z,61.2
2018-02-18T10:57:32.867Z,60.4
2018-02-18T10:58:35.682Z,60.3
2018-02-18T10:59:37.853Z,61.6
2018-02-18T11:00:39.961Z,62.8
2018-02-18T11:01:41.708Z,63.2
2018-02-18T11:02:43.818Z,63.7
2018-02-18T11:03:45.902Z,64.3
2018-02-18T11:04:47.941Z,64.1
2018-02-18T11:05:50.091Z,64.3
2018-02-18T11:06:51.929Z,63.8
2018-02-18T11:07:54.187Z,62.1
2018-02-18T11:08:56.616Z,61.3
2018-02-18T11:09:59.032Z,60.0
2018-02-18T11:11:01.154Z,57.5
2018-02-18T11:12:05.702Z,56.0
2018-02-18T11:13:09.642Z,54.4
2018-02-18T11:14:11.581Z,52.1
2018-02-18T11:15:13.443Z,51.6
2018-02-18T11:16:15.169Z,51.2
2018-02-18T11:17:19.003Z,51.2
2018-02-18T11:18:21.116Z,51.6
2018-02-18T11:19:23.098Z,52.1
2018-02-18T11:20:25.114Z,51.3
2018-02-18T11:21:27.434Z,50.9
2018-02-18T11:22:30.764Z,51.0
2018-02-18T11:23:32.988Z,50.5
2018-02-18T11:24:35.943Z,50.3
2018-02-18T11:25:37.910Z,51.0
2018-02-18T11:26:44.773Z,52.2
2018-02-18T11:27:47.018Z,53.2
2018-02-18T11:28:49.137Z,52.3
2018-02-18T11:29:51.386Z,52.8
2018-02-18T11:30:53.560Z,53.0
2018-02-18T11:31:55.541Z,52.0
2018-02-18T11:32:57.623Z,52.3
2018-02-18T11:33:59.594Z,54.4
2018-02-18T11:35:01.805Z,55.3
2018-02-18T11:36:04.141Z,54.2
2018-02-18T11:37:06.335Z,53.0
2018-02-18T11:38:08.627Z,51.7
2018-02-18T11:39:10.353Z,50.7
2018-02-18T11:40:12.745Z,51.1
2018-02-18T11:41:14.496Z,51.3
2018-02-18T11:42:16.319Z,51.0
2018-02-18T11:43:20.531Z,50.9
2018-02-18T11:44:22.510Z,50.4
2018-02-18T11:45:24.441Z,50.4
2018-02-18T11:46:26.248Z,51.1
2018-02-18T11:47:28.344Z,50.6
2018-02-18T11:48:30.769Z,50.5
2018-02-18T11:49:32.648Z,48.4
2018-02-18T11:50:34.748Z,46.3
2018-02-18T11:51:36.773Z,45.5
2018-02-18T11:52:38.527Z,45.5
2018-02-18T11:53:40.708Z,44.7
2018-02-18T11:54:43.653Z,45.2
2018-02-18T11:55:45.690Z,44.4
2018-02-18T11:56:48.100Z,44.0
2018-02-18T11:57:50.529Z,43.3
2018-02-18T11:58:52.492Z,43.3
2018-02-18T11:59:54.608Z,42.8
2018-02-18T12:00:57.316Z,41.5
2018-02-18T12:01:59.561Z,41.1
2018-02-18T12:03:02.459Z,42.4
2018-02-18T12:04:04.942Z,42.7
2018-02-18T12:05:07.795Z,42.5
2018-02-18T12:06:10.013Z,41.9
2018-02-18T12:07:11.779Z,41.0
2018-02-18T12:08:14.709Z,40.6
2018-02-18T12:09:16.591Z,41.0
2018-02-18T12:10:18.552Z,39.0
2018-02-18T12:11:20.833Z,38.5
2018-02-18T12:12:23.057Z,38.8
2018-02-18T12:13:24.996Z,39.0
2018-02-18T12:14:27.126Z,39.1
2018-02-18T12:15:28.898Z,38.1
2018-02-18T12:16:31.089Z,38.1
2018-02-18T12:17:33.138Z,37.7
2018-02-18T12:18:35.124Z,37.5
2018-02-18T12:19:37.290Z,37.4
2018-02-18T12:20:39.652Z,37.4
2018-02-18T12:21:41.782Z,37.1
2018-02-18T12:22:43.942Z,37.7
2018-02-18T12:23:46.234Z,37.5
2018-02-18T12:24:48.363Z,37.7
2018-02-18T12:25:51.386Z,38.2
2018-02-18T12:26:53.646Z,36.7
2018-02-18T12:27:57.027Z,36.4
2018-02-18T12:28:59.573Z,36.5
2018-02-18T12:30:02.064Z,36.9
2018-02-18T12:31:04.178Z,34.9
2018-02-18T12:32:07.066Z,34.6
2018-02-18T12:33:09.164Z,34.0
2018-02-18T12:34:11.410Z,34.1
2018-02-18T12:35:13.500Z,36.6
2018-02-18T12:36:15.726Z,37.7
2018-02-18T12:37:17.785Z,37.5
2018-02-18T12:38:19.790Z,38.0
2018-02-18T12:39:22.036Z,37.0
2018-02-18T12:41:35.731Z,35.0
2018-02-18T12:42:37.507Z,34.6
2018-02-18T12:43:39.150Z,34.9
2018-02-18T12:44:40.822Z,35.0
2018-02-18T12:45:42.497Z,33.4
2018-02-18T12:46:44.141Z,33.8
2018-02-18T12:47:45.792Z,33.2
2018-02-18T12:48:47.455Z,33.3
2018-02-18T12:49:49.099Z,33.5
2018-02-18T12:50:50.737Z,33.4
2018-02-18T12:51:52.394Z,32.3
2018-02-18T12:52:54.033Z,31.2
2018-02-18T12:53:55.713Z,31.2
2018-02-18T12:54:57.383Z,31.2
2018-02-18T12:55:59.030Z,31.2
2018-02-18T12:57:00.667Z,32.8
2018-02-18T12:58:02.308Z,33.3
2018-02-18T12:59:04.263Z,35.2
2018-02-18T13:00:06.147Z,37.4
2018-02-18T13:01:07.816Z,38.1
2018-02-18T13:02:09.508Z,37.6
2018-02-18T13:03:11.182Z,37.5
2018-02-18T13:04:12.827Z,37.2
2018-02-18T13:05:16.033Z,36.4
2018-02-18T13:06:17.698Z,36.6
2018-02-18T13:07:19.354Z,37.6
2018-02-18T13:08:21.033Z,38.1
2018-02-18T13:09:22.724Z,37.3
2018-02-18T13:10:24.371Z,36.7
2018-02-18T13:11:26.016Z,36.1
2018-02-18T13:12:27.770Z,37.3
2018-02-18T13:13:29.500Z,37.5
2018-02-18T13:14:31.852Z,37.0
2018-02-18T13:15:33.511Z,35.3
2018-02-18T13:16:35.152Z,34.8
2018-02-18T13:17:36.806Z,33.6
2018-02-18T13:18:38.452Z,33.3
2018-02-18T13:19:40.103Z,32.1
2018-02-18T13:20:41.762Z,33.2
2018-02-18T13:21:43.425Z,33.5
2018-02-18T13:22:45.079Z,32.7
2018-02-18T13:23:46.730Z,31.3
2018-02-18T13:24:49.894Z,31.2
2018-02-18T13:25:51.546Z,31.4
2018-02-18T13:26:53.940Z,30.2
2018-02-18T13:27:55.582Z,30.2
2018-02-18T13:28:58.757Z,30.6
2018-02-18T13:30:00.405Z,31.6
2018-02-18T13:31:02.051Z,32.2
2018-02-18T13:32:04.584Z,31.3
2018-02-18T13:33:08.501Z,33.0
2018-02-18T13:34:11.034Z,33.4
2018-02-18T13:35:18.062Z,35.1
2018-02-18T13:36:19.804Z,34.7
2018-02-18T13:37:25.108Z,33.2
2018-02-18T13:38:30.852Z,33.6
2018-02-18T13:39:32.526Z,33.4
2018-02-18T13:40:38.967Z,34.8
2018-02-18T13:41:40.632Z,35.7
2018-02-18T13:42:42.275Z,34.6
2018-02-18T13:43:43.932Z,33.1
2018-02-18T13:44:46.913Z,33.1
2018-02-18T13:45:48.609Z,33.5
2018-02-18T13:46:50.332Z,32.3
2018-02-18T13:47:54.199Z,33.2
2018-02-18T13:50:20.357Z,35.1
2018-02-18T13:51:37.960Z,35.0
2018-02-18T13:53:36.405Z,33.4
2018-02-18T13:56:40.721Z,34.2
2018-02-18T13:58:08.696Z,33.5
2018-02-18T13:59:19.527Z,36.2
2018-02-18T14:00:24.889Z,38.3
2018-02-18T14:01:37.693Z,37.5
2018-02-18T14:02:41.591Z,37.0
2018-02-18T14:03:45.979Z,35.0
2018-02-18T14:04:50.418Z,33.4
2018-02-18T14:05:58.584Z,32.1
2018-02-18T14:07:09.066Z,33.5
2018-02-18T14:08:11.275Z,33.5
2018-02-18T14:09:17.541Z,33.2
2018-02-18T14:10:19.289Z,31.4
2018-02-18T14:11:23.200Z,31.1
2018-02-18T14:12:24.858Z,31.6
2018-02-18T14:13:26.606Z,32.6
2018-02-18T14:14:28.912Z,31.9
2018-02-18T14:15:31.373Z,33.4
2018-02-18T14:16:33.889Z,34.6
2018-02-18T14:17:38.532Z,34.6
2018-02-18T14:18:40.194Z,33.3
2018-02-18T14:19:41.849Z,33.3
2018-02-18T14:20:46.324Z,32.5
2018-02-18T14:21:51.955Z,31.8
2018-02-18T14:22:57.799Z,31.1
2018-02-18T14:23:59.505Z,31.7
2018-02-18T14:26:08.606Z,31.1
2018-02-18T14:27:11.799Z,31.4
2018-02-18T14:28:13.493Z,31.2
2018-02-18T14:29:17.214Z,31.9
2018-02-18T14:30:18.851Z,34.8
2018-02-18T14:31:21.450Z,35.0
2018-02-18T14:32:23.963Z,35.7
2018-02-18T14:33:25.650Z,37.4
2018-02-18T14:34:27.414Z,38.4
2018-02-18T14:35:29.056Z,39.6
2018-02-18T14:36:30.739Z,40.7
2018-02-18T14:37:32.408Z,41.8
2018-02-18T14:38:34.684Z,42.2
2018-02-18T14:39:36.331Z,42.1
2018-02-18T14:40:39.810Z,42.5
2018-02-18T14:41:41.464Z,42.9
2018-02-18T14:42:43.108Z,43.4
2018-02-18T14:43:47.130Z,44.1
2018-02-18T14:44:55.230Z,44.8
2018-02-18T14:45:58.664Z,44.5
2018-02-18T14:47:00.309Z,44.7
2018-02-18T14:48:01.953Z,45.2
2018-02-18T14:49:07.546Z,45.1
2018-02-18T14:50:08.388Z,45.6
2018-02-18T14:51:10.083Z,46.5
2018-02-18T14:52:12.435Z,47.4
2018-02-18T14:53:14.071Z,47.6
2018-02-18T14:54:16.423Z,47.3
2018-02-18T14:55:19.870Z,48.2
2018-02-18T14:56:23.267Z,48.4
2018-02-18T14:57:24.901Z,49.2
2018-02-18T14:58:27.437Z,48.7
2018-02-18T14:59:29.102Z,48.0
2018-02-18T15:00:30.746Z,48.5
2018-02-18T15:01:34.055Z,49.3
2018-02-18T15:02:35.759Z,49.9
2018-02-18T15:03:37.410Z,50.3
2018-02-18T15:04:39.093Z,50.2
2018-02-18T15:05:40.822Z,49.9
2018-02-18T15:06:46.151Z,49.6
2018-02-18T15:07:47.888Z,48.9
2018-02-18T15:08:52.136Z,49.6
2018-02-18T15:09:56.649Z,49.7
2018-02-18T15:10:59.856Z,50.4
2018-02-18T15:12:01.533Z,50.4
2018-02-18T15:13:03.269Z,50.8
2018-02-18T15:14:06.359Z,51.0
2018-02-18T15:15:11.031Z,51.2
2018-02-18T15:16:12.682Z,51.4
2018-02-18T15:17:17.000Z,51.1
2018-02-18T15:18:24.199Z,51.1
2018-02-18T15:19:26.482Z,51.7
2018-02-18T15:20:29.222Z,52.3
2018-02-18T15:21:33.977Z,53.0
2018-02-18T15:22:35.735Z,54.1
2018-02-18T15:23:37.567Z,54.4
2018-02-18T15:25:41.383Z,53.9
2018-02-18T15:26:43.080Z,53.9
2018-02-18T15:27:59.938Z,53.9
2018-02-18T15:29:01.692Z,53.3
2018-02-18T15:30:10.433Z,53.3
2018-02-18T15:31:13.117Z,53.6
2018-02-18T15:33:59.792Z,53.7
2018-02-18T15:35:06.796Z,53.9
2018-02-18T15:36:08.582Z,54.0
2018-02-18T15:37:12.831Z,53.6
2018-02-18T15:38:16.053Z,54.0
2018-02-18T15:39:27.312Z,53.9
2018-02-18T15:42:03.373Z,53.6
2018-02-18T15:43:05.955Z,54.2
2018-02-18T15:44:07.682Z,54.4
2018-02-18T15:45:09.391Z,54.4
2018-02-18T15:46:11.198Z,54.1
2018-02-18T15:47:12.860Z,54.8
2018-02-18T15:48:15.122Z,54.6
2018-02-18T15:49:16.959Z,55.4
2018-02-18T15:50:18.769Z,54.9
2018-02-18T15:51:20.588Z,55.0
2018-02-18T15:52:22.441Z,55.0
2018-02-18T15:53:24.154Z,55.0
2018-02-18T15:54:25.861Z,54.8
2018-02-18T15:55:31.396Z,55.1
2018-02-18T15:56:35.595Z,55.8
2018-02-18T15:57:38.225Z,56.1
2018-02-18T15:58:41.052Z,55.5
2018-02-18T15:59:43.413Z,55.3
2018-02-18T16:00:45.107Z,55.9
2018-02-18T16:01:47.901Z,55.6
2018-02-18T16:02:49.608Z,55.4
2018-02-18T16:03:51.319Z,55.0
2018-02-18T16:04:52.995Z,55.6
2018-02-18T16:05:58.242Z,55.0
2018-02-18T16:06:59.570Z,55.3
2018-02-18T16:08:01.271Z,55.2
2018-02-18T16:09:04.807Z,55.1
2018-02-18T16:10:06.647Z,55.0
2018-02-18T16:11:10.579Z,55.0
2018-02-18T16:12:14.173Z,54.5
2018-02-18T16:13:15.836Z,55.0
2018-02-18T16:14:19.114Z,55.6
2018-02-18T16:15:22.080Z,55.5
2018-02-18T16:16:23.781Z,55.4
2018-02-18T16:17:29.744Z,55.0
2018-02-18T16:18:30.116Z,55.6
2018-02-18T16:19:34.278Z,55.2
2018-02-18T16:20:41.483Z,55.4
2018-02-18T16:21:43.184Z,55.6
2018-02-18T16:22:44.842Z,55.8
2018-02-18T16:23:47.819Z,55.8
2018-02-18T16:24:49.526Z,55.5
2018-02-18T16:25:51.865Z,55.5
2018-02-18T16:26:54.285Z,55.6
2018-02-18T16:27:58.658Z,55.8
2018-02-18T16:29:00.389Z,55.8
2018-02-18T16:30:08.212Z,55.3
2018-02-18T16:31:28.521Z,55.5
2018-02-18T16:32:30.587Z,55.4
2018-02-18T16:33:34.684Z,55.2
2018-02-18T16:35:01.123Z,55.3
2018-02-18T16:36:06.618Z,55.7
2018-02-18T16:37:08.345Z,55.7
2018-02-18T16:38:10.057Z,55.7
2018-02-18T16:39:15.053Z,55.9
2018-02-18T16:40:16.580Z,56.4
2018-02-18T16:41:19.696Z,56.8
2018-02-18T16:42:21.837Z,56.8
2018-02-18T16:43:28.523Z,57.1
2018-02-18T16:44:47.923Z,57.6
2018-02-18T16:45:49.662Z,57.5
2018-02-18T16:46:52.123Z,57.8
2018-02-18T16:47:53.877Z,57.8
2018-02-18T16:48:55.554Z,57.5
2018-02-18T16:49:57.878Z,57.8
2018-02-18T16:50:59.996Z,58.5
2018-02-18T16:52:01.536Z,58.0
2018-02-18T16:53:03.266Z,57.9
2018-02-18T16:54:04.989Z,57.4
2018-02-18T16:55:07.782Z,57.6
2018-02-18T16:56:09.522Z,57.8
2018-02-18T16:57:11.286Z,58.3
2018-02-18T16:58:13.345Z,59.2
2018-02-18T16:59:15.049Z,58.6
2018-02-18T17:00:16.807Z,57.8
2018-02-18T17:01:18.570Z,57.4
2018-02-18T17:02:21.158Z,57.5
2018-02-18T17:03:25.113Z,58.2
2018-02-18T17:04:26.547Z,58.4
2018-02-18T17:05:28.252Z,58.6
2018-02-18T17:06:29.961Z,58.8
2018-02-18T17:07:31.680Z,58.8
2018-02-18T17:08:33.493Z,58.9
2018-02-18T17:09:35.300Z,58.9
2018-02-18T17:10:37.054Z,57.6
2018-02-18T17:11:38.828Z,58.4
2018-02-18T17:12:40.540Z,58.4
2018-02-18T17:13:42.265Z,57.8
2018-02-18T17:14:44.431Z,58.0
2018-02-18T17:15:46.197Z,57.8
2018-02-18T17:16:47.890Z,58.3
2018-02-18T17:17:49.618Z,57.9
2018-02-18T17:18:51.517Z,58.2
2018-02-18T17:19:53.272Z,58.0
2018-02-18T17:20:54.969Z,58.2
2018-02-18T17:21:57.946Z,58.5
2018-02-18T17:22:59.657Z,58.5
2018-02-18T17:24:01.406Z,58.7
2018-02-18T17:25:03.196Z,58.2
2018-02-18T17:26:04.890Z,58.0
2018-02-18T17:27:06.579Z,58.2
2018-02-18T17:28:08.227Z,59.4
2018-02-18T17:29:09.864Z,59.5
2018-02-18T17:30:11.485Z,59.4
2018-02-18T17:31:13.204Z,59.9
2018-02-18T17:32:14.819Z,59.2
2018-02-18T17:33:16.520Z,58.9
2018-02-18T17:34:18.133Z,58.3
2018-02-18T17:35:19.810Z,59.4
2018-02-18T17:36:21.567Z,59.7
2018-02-18T17:37:23.200Z,60.4
2018-02-18T17:38:24.946Z,59.6
2018-02-18T17:39:26.611Z,59.9
2018-02-18T17:40:28.244Z,59.8
2018-02-18T17:41:29.886Z,60.7
2018-02-18T17:42:31.537Z,61.2
2018-02-18T17:43:33.494Z,61.2
2018-02-18T17:44:35.225Z,60.6
2018-02-18T17:45:36.938Z,60.5
2018-02-18T17:46:38.585Z,59.9
2018-02-18T17:47:40.297Z,60.4
2018-02-18T17:48:41.945Z,60.6
2018-02-18T17:49:43.628Z,60.7
2018-02-18T17:50:45.451Z,60.9
2018-02-18T17:51:47.131Z,61.3
2018-02-18T17:52:48.842Z,62.0
2018-02-18T17:53:50.490Z,62.2
2018-02-18T17:54:52.500Z,61.5
2018-02-18T17:55:54.222Z,62.3
2018-02-18T17:56:55.839Z,62.2
2018-02-18T17:57:57.875Z,62.3
2018-02-18T17:59:00.118Z,61.7
2018-02-18T18:00:02.032Z,61.7
2018-02-18T18:01:03.854Z,61.9
2018-02-18T18:02:05.560Z,62.4
2018-02-18T18:03:07.190Z,62.2
2018-02-18T18:04:08.922Z,62.8
2018-02-18T18:05:10.622Z,62.7
2018-02-18T18:06:14.390Z,62.8
2018-02-18T18:07:16.100Z,62.8
2018-02-18T18:08:17.728Z,62.7
2018-02-18T18:09:19.411Z,63.0
2018-02-18T18:10:21.071Z,63.3
2018-02-18T18:11:22.778Z,63.1
2018-02-18T18:12:24.501Z,63.1
2018-02-18T18:13:26.178Z,63.5
2018-02-18T18:14:27.898Z,63.6
2018-02-18T18:15:29.590Z,63.7
2018-02-18T18:16:31.390Z,63.6
2018-02-18T18:17:33.167Z,64.4
2018-02-18T18:18:34.907Z,64.3
2018-02-18T18:19:36.851Z,63.1
2018-02-18T18:20:38.797Z,64.2
2018-02-18T18:21:40.560Z,63.6
2018-02-18T18:22:42.517Z,64.3
2018-02-18T18:23:44.581Z,64.0
2018-02-18T18:24:46.213Z,64.4
2018-02-18T18:25:47.928Z,63.9
2018-02-18T18:26:50.078Z,64.5
2018-02-18T18:27:51.517Z,64.5
2018-02-18T18:28:53.208Z,64.3
2018-02-18T18:29:58.828Z,64.4
2018-02-18T18:31:00.861Z,65.4
2018-02-18T18:32:02.560Z,65.6
2018-02-18T18:33:04.215Z,65.8
2018-02-18T18:34:05.877Z,66.1
2018-02-18T18:35:07.560Z,66.6
2018-02-18T18:36:09.203Z,65.8
2018-02-18T18:37:10.944Z,66.3
2018-02-18T18:38:12.682Z,66.3
2018-02-18T18:39:14.349Z,66.3
2018-02-18T18:40:16.057Z,66.6
2018-02-18T18:41:17.740Z,66.7
2018-02-18T18:42:19.388Z,67.1
2018-02-18T18:43:21.195Z,67.2
2018-02-18T18:44:22.872Z,67.3
2018-02-18T18:45:24.560Z,66.9
2018-02-18T18:46:26.314Z,67.4
2018-02-18T18:47:27.956Z,67.2
2018-02-18T18:48:29.597Z,67.2
2018-02-18T18:49:31.334Z,67.2
2018-02-18T18:50:33.054Z,67.1
2018-02-18T18:51:34.763Z,67.2
2018-02-18T18:52:36.524Z,66.7
2018-02-18T18:53:38.184Z,67.1
2018-02-18T18:54:39.941Z,67.2
2018-02-18T18:55:41.742Z,66.8
2018-02-18T18:56:43.447Z,67.1
2018-02-18T18:57:45.229Z,67.1
2018-02-18T18:58:46.959Z,67.3
2018-02-18T18:59:48.822Z,67.5
2018-02-18T19:00:50.609Z,67.5
2018-02-18T19:01:52.313Z,67.8
2018-02-18T19:02:54.078Z,67.8
2018-02-18T19:03:55.875Z,67.7
2018-02-18T19:04:57.650Z,67.9
2018-02-18T19:05:59.665Z,68.3
2018-02-18T19:07:01.400Z,68.7
2018-02-18T19:08:03.296Z,68.6
2018-02-18T19:09:05.018Z,68.6
2018-02-18T19:10:06.861Z,68.9
2018-02-18T19:11:08.672Z,68.9
2018-02-18T19:12:10.424Z,69.0
2018-02-18T19:13:12.130Z,69.6
2018-02-18T19:14:13.902Z,70.3
2018-02-18T19:15:15.854Z,70.3
2018-02-18T19:16:17.624Z,69.9
2018-02-18T19:17:19.830Z,69.9
2018-02-18T19:18:21.486Z,70.7
2018-02-18T19:19:23.193Z,70.6
2018-02-18T19:20:24.992Z,71.2
2018-02-18T19:21:26.707Z,71.0
2018-02-18T19:22:28.428Z,71.2
2018-02-18T19:23:30.114Z,71.1
2018-02-18T19:24:31.944Z,71.2
2018-02-18T19:25:33.655Z,71.4
2018-02-18T19:26:35.716Z,71.8
2018-02-18T19:27:37.573Z,71.2
2018-02-18T19:28:39.304Z,70.7
2018-02-18T19:29:41.033Z,71.0
2018-02-18T19:30:43.029Z,71.4
2018-02-18T19:31:44.771Z,71.4
2018-02-18T19:32:46.759Z,71.3
2018-02-18T19:33:48.921Z,71.5
2018-02-18T19:34:50.645Z,71.6
2018-02-18T19:35:52.408Z,71.5
2018-02-18T19:36:54.142Z,71.9
2018-02-18T19:37:55.901Z,72.4
2018-02-18T19:38:57.707Z,72.0
2018-02-18T19:39:59.376Z,71.9
2018-02-18T19:41:01.132Z,71.6
2018-02-18T19:42:02.861Z,71.6
2018-02-18T19:43:04.605Z,72.3
2018-02-18T19:44:06.316Z,72.3
2018-02-18T19:45:08.444Z,72.7
2018-02-18T19:46:10.197Z,72.8
2018-02-18T19:47:11.960Z,73.2
2018-02-18T19:48:13.701Z,73.2
2018-02-18T19:49:15.816Z,72.8
2018-02-18T19:50:18.251Z,73.2
2018-02-18T19:51:20.090Z,73.1
2018-02-18T19:52:21.776Z,73.4
2018-02-18T19:53:23.676Z,73.9
2018-02-18T19:54:25.468Z,73.7
2018-02-18T19:55:27.173Z,74.4
2018-02-18T19:56:29.362Z,74.6
2018-02-18T19:57:31.078Z,74.4
2018-02-18T19:58:33.324Z,75.3
2018-02-18T19:59:35.197Z,75.0
2018-02-18T20:00:36.885Z,74.7
2018-02-18T20:01:38.761Z,75.2
2018-02-18T20:02:40.772Z,75.2
2018-02-18T20:03:42.653Z,75.0
2018-02-18T20:04:44.362Z,74.8
2018-02-18T20:05:46.063Z,75.2
2018-02-18T20:06:48.569Z,75.2
2018-02-18T20:07:50.235Z,75.0
2018-02-18T20:08:52.702Z,74.9
2018-02-18T20:09:54.848Z,74.9
2018-02-18T20:10:56.835Z,75.0
2018-02-18T20:11:58.559Z,75.1
2018-02-18T20:13:00.719Z,75.1
2018-02-18T20:14:03.087Z,75.2
2018-02-18T20:15:04.801Z,75.4
2018-02-18T20:16:06.549Z,75.2
2018-02-18T20:17:08.309Z,74.9
2018-02-18T20:18:10.032Z,75.3
2018-02-18T20:19:11.905Z,75.1
2018-02-18T20:20:13.818Z,75.5
2018-02-18T20:21:15.517Z,74.9
2018-02-18T20:22:17.290Z,75.1
2018-02-18T20:23:19.046Z,75.1
2018-02-18T20:24:21.106Z,75.2
2018-02-18T20:25:23.737Z,75.9
2018-02-18T20:26:25.995Z,75.6
2018-02-18T20:27:27.843Z,75.8
2018-02-18T20:28:29.534Z,75.5
2018-02-18T20:29:31.249Z,76.1
2018-02-18T20:30:33.102Z,76.2
2018-02-18T20:31:34.791Z,76.1
2018-02-18T20:32:36.711Z,76.3
2018-02-18T20:33:38.404Z,76.3
2018-02-18T20:34:40.159Z,76.3
2018-02-18T20:35:41.811Z,76.3
2018-02-18T20:36:43.467Z,76.5
2018-02-18T20:37:46.156Z,76.6
2018-02-18T20:38:48.644Z,75.7
2018-02-18T20:39:51.017Z,76.3
2018-02-18T20:40:53.129Z,77.0
2018-02-18T20:41:54.879Z,76.9
2018-02-18T20:42:56.962Z,77.2
2018-02-18T20:43:59.002Z,77.2
2018-02-18T20:45:00.738Z,77.7
2018-02-18T20:46:02.557Z,77.3
2018-02-18T20:47:04.834Z,77.8
2018-02-18T20:48:06.504Z,77.5
2018-02-18T20:49:08.611Z,77.5
2018-02-18T20:50:10.287Z,77.1
2018-02-18T20:51:12.026Z,77.7
2018-02-18T20:52:14.417Z,77.8
2018-02-18T20:53:16.679Z,77.7
2018-02-18T20:54:18.367Z,77.9
2018-02-18T20:55:20.121Z,78.0
2018-02-18T20:56:21.882Z,78.3
2018-02-18T20:57:23.654Z,77.9
2018-02-18T20:58:25.418Z,77.8
2018-02-18T20:59:27.125Z,77.8
2018-02-18T21:00:28.906Z,77.7
2018-02-18T21:01:30.938Z,78.2
2018-02-18T21:02:32.625Z,78.3
2018-02-18T21:03:34.647Z,78.5